Time;durP1;ratioP1;P1;durP2;ratioP2;P2;SDS_P1;SDS_P2;PMS_P1;PMS_P2;Temp;Humidity;BMP_temperature;BMP_pressure;BME280_temperature;BME280_humidity;BME280_pressure;Samples;Min_cycle;Max_cycle;Signal;HPM_P1;HPM_P2
2022/01/14 00:01:03;;;;;;;4.80;3.50;;;;;;;1.21;84.56;98731.71;105083;1274;61141;-23
2022/01/14 00:03:32;;;;;;;4.10;3.10;;;;;;;1.18;85.33;98735.63;104662;1274;61963;-22
2022/01/14 00:06:01;;;;;;;3.80;2.40;;;;;;;1.50;83.98;98742.44;104766;1271;74569;-22
2022/01/14 00:08:29;;;;;;;5.40;3.40;;;;;;;1.52;83.73;98738.40;104788;1271;75241;-22
2022/01/14 00:10:59;;;;;;;3.30;2.60;;;;;;;1.31;84.51;98727.95;104799;1271;74446;-21
2022/01/14 00:13:53;;;;;;;4.90;2.60;;;;;;;1.26;85.18;98743.75;104821;1271;62931;-21
2022/01/14 00:16:22;;;;;;;3.50;2.30;;;;;;;1.68;83.19;98749.24;104970;1274;61100;-21
2022/01/14 00:18:50;;;;;;;4.50;2.80;;;;;;;1.70;82.86;98740.43;104768;1271;74812;-21
2022/01/14 00:21:19;;;;;;;5.00;3.30;;;;;;;1.48;83.77;98731.60;104942;1271;74963;-21
2022/01/14 00:23:51;;;;;;;5.60;3.40;;;;;;;1.23;84.87;98720.98;104705;1274;73224;-21
2022/01/14 00:31:58;;;;;;;4.00;2.00;;;;;;;1.47;84.03;98703.40;104752;1271;75707;-21
2022/01/14 00:34:30;;;;;;;4.40;2.90;;;;;;;1.32;84.65;98695.59;104763;1271;76090;-22
2022/01/14 00:37:00;;;;;;;4.50;2.60;;;;;;;1.43;84.62;98687.70;104765;1271;74117;-21
2022/01/14 00:39:29;;;;;;;2.70;2.30;;;;;;;1.63;83.51;98691.83;104881;1274;61118;-21
2022/01/14 00:41:58;;;;;;;3.10;2.20;;;;;;;1.41;84.22;98672.92;104785;1274;61104;-21
2022/01/14 00:44:27;;;;;;;7.20;2.90;;;;;;;1.26;84.96;98678.96;105090;1271;74651;-21
2022/01/14 00:46:56;;;;;;;4.20;2.50;;;;;;;1.20;85.38;98667.59;105124;1271;76088;-22
2022/01/14 00:49:24;;;;;;;3.90;2.80;;;;;;;1.45;84.38;98662.13;105036;1271;72883;-22
2022/01/14 00:51:52;;;;;;;5.00;2.80;;;;;;;1.46;84.34;98652.98;105070;1271;62087;-23
2022/01/14 00:54:21;;;;;;;3.90;2.90;;;;;;;1.29;84.81;98643.57;104917;1271;61028;-21
2022/01/14 00:57:02;;;;;;;2.50;1.90;;;;;;;1.21;85.54;98647.22;104813;1271;75653;-21
2022/01/14 00:59:31;;;;;;;4.20;2.40;;;;;;;1.46;84.54;98648.03;104730;1274;76006;-21
2022/01/14 01:02:01;;;;;;;3.50;2.20;;;;;;;1.38;84.62;98635.76;104793;1271;74185;-21
2022/01/14 01:04:35;;;;;;;4.40;2.80;;;;;;;1.32;85.03;98641.05;104653;1274;62113;-21
2022/01/14 01:07:08;;;;;;;3.80;2.50;;;;;;;1.26;85.42;98631.59;104751;1274;61842;-21
2022/01/14 01:09:37;;;;;;;4.20;2.60;;;;;;;1.51;84.32;98625.88;104729;1271;75556;-21
2022/01/14 01:12:12;;;;;;;4.30;3.10;;;;;;;1.59;83.85;98627.17;105042;1274;72062;-22
2022/01/14 01:14:51;;;;;;;;;;;;;;;1.39;84.47;98628.17;105144;1274;73280;-21
2022/01/14 01:17:23;;;;;;;2.70;2.20;;;;;;;1.21;85.53;98618.51;104755;1274;61767;-21
2022/01/14 01:19:51;;;;;;;4.40;3.00;;;;;;;1.42;84.73;98611.80;104691;1273;60930;-21
2022/01/14 01:22:20;;;;;;;3.20;2.00;;;;;;;1.45;84.43;98613.70;104782;1272;75513;-22
2022/01/14 01:24:55;;;;;;;4.50;2.30;;;;;;;1.38;84.61;98606.02;105004;1271;74997;-21
2022/01/14 01:27:24;;;;;;;4.20;2.50;;;;;;;1.26;85.48;98599.59;104759;1272;71271;-21
2022/01/14 01:30:00;;;;;;;3.90;2.70;;;;;;;1.52;84.47;98603.23;104860;1272;61158;-21
2022/01/14 01:32:28;;;;;;;6.60;3.60;;;;;;;1.50;84.41;98588.48;104773;1271;61045;-21
2022/01/14 01:34:57;;;;;;;2.70;1.90;;;;;;;1.40;84.84;98593.25;104819;1274;75428;-21
2022/01/14 01:37:25;;;;;;;5.50;3.30;;;;;;;1.24;85.70;98578.83;104723;1274;75981;-20
2022/01/14 01:39:53;;;;;;;3.40;2.60;;;;;;;1.55;84.59;98562.72;104816;1271;71537;-19
2022/01/14 01:42:27;;;;;;;4.10;2.20;;;;;;;1.60;84.09;98567.94;104780;1271;61167;-22
2022/01/14 01:44:58;;;;;;;4.50;3.50;;;;;;;1.45;84.96;98535.87;104801;1271;61078;-23
2022/01/14 01:47:28;;;;;;;3.70;2.60;;;;;;;1.28;85.70;98549.03;104689;1274;75288;-24
2022/01/14 01:49:56;;;;;;;3.20;2.30;;;;;;;1.52;85.02;98555.04;104830;1271;76366;-22
2022/01/14 01:52:24;;;;;;;4.50;2.80;;;;;;;1.68;84.13;98546.29;104750;1274;73494;-23
2022/01/14 01:54:52;;;;;;;2.50;2.00;;;;;;;1.52;84.72;98563.41;105137;1272;61518;-22
2022/01/14 01:57:21;;;;;;;3.90;2.50;;;;;;;1.38;85.21;98560.53;105073;1271;61006;-23
2022/01/14 01:59:49;;;;;;;4.10;2.60;;;;;;;1.49;84.95;98549.16;105045;1274;74623;-24
2022/01/14 02:02:17;;;;;;;3.40;2.30;;;;;;;1.64;84.09;98546.66;104879;1271;74810;-23
2022/01/14 02:04:46;;;;;;;4.30;3.00;;;;;;;1.57;84.27;98546.36;104893;1271;74866;-23
2022/01/14 02:07:14;;;;;;;2.80;2.30;;;;;;;1.28;85.69;98548.35;104796;1271;61408;-22
2022/01/14 02:09:47;;;;;;;3.00;2.20;;;;;;;1.49;84.80;98547.12;104900;1274;61240;-23
2022/01/14 02:12:17;;;;;;;3.60;2.60;;;;;;;1.75;83.70;98539.45;104728;1274;75639;-23
2022/01/14 02:17:31;;;;;;;4.10;2.60;;;;;;;1.40;84.88;98518.68;104793;1271;73014;-23
2022/01/14 02:22:55;;;;;;;4.20;3.10;;;;;;;1.76;83.67;98531.00;105123;1271;61041;-23
2022/01/14 02:25:30;;;;;;;4.00;2.50;;;;;;;1.72;83.39;98503.99;104889;1271;73885;-23
2022/01/14 02:28:01;;;;;;;2.40;2.00;;;;;;;1.48;84.35;98524.42;104967;1271;75211;-23
2022/01/14 02:30:30;;;;;;;2.60;1.60;;;;;;;1.51;84.23;98511.77;104716;1274;74740;-22
2022/01/14 02:32:59;;;;;;;2.50;2.10;;;;;;;1.76;83.19;98515.42;104837;1274;61140;-23
2022/01/14 02:35:28;;;;;;;2.70;1.90;;;;;;;1.69;83.00;98514.25;104777;1274;61731;-23
2022/01/14 02:37:56;;;;;;;2.80;2.00;;;;;;;1.59;83.48;98505.73;105056;1271;75766;-23
2022/01/14 02:40:25;;;;;;;3.00;2.20;;;;;;;1.37;84.40;98505.13;104901;1271;75959;-22
2022/01/14 02:42:56;;;;;;;3.40;2.20;;;;;;;1.54;84.11;98490.92;104909;1271;73182;-23
2022/01/14 02:45:28;;;;;;;4.10;2.80;;;;;;;1.67;83.47;98500.17;104871;1271;62106;-23
2022/01/14 02:47:56;;;;;;;5.30;3.20;;;;;;;1.56;83.55;98497.63;104958;1271;61132;-23
2022/01/14 02:50:25;;;;;;;3.10;2.20;;;;;;;1.31;84.64;98482.02;104760;1272;75519;-23
2022/01/14 02:52:57;;;;;;;2.80;2.20;;;;;;;1.69;83.22;98501.45;104817;1271;74019;-23
2022/01/14 02:55:31;;;;;;;3.10;2.30;;;;;;;1.73;82.50;98504.79;104864;1271;72792;-23
2022/01/14 02:57:59;;;;;;;;;;;;;;;1.52;83.55;98470.98;105150;1271;61060;-23
2022/01/14 03:00:30;;;;;;;2.90;2.30;;;;;;;1.43;83.96;98497.67;105149;1271;61256;-23
2022/01/14 03:03:00;;;;;;;3.80;2.80;;;;;;;1.60;83.62;98497.77;104954;1271;74696;-23
2022/01/14 03:05:30;;;;;;;4.70;2.80;;;;;;;1.72;83.08;98495.75;104805;1271;75918;-23
2022/01/14 03:07:58;;;;;;;4.70;2.40;;;;;;;1.53;83.70;98478.48;104625;1272;74850;-23
2022/01/14 03:10:27;;;;;;;4.20;2.60;;;;;;;1.39;84.36;98465.87;104813;1274;61019;-22
2022/01/14 03:12:55;;;;;;;4.10;2.80;;;;;;;1.60;83.78;98463.21;104796;1275;61092;-24
2022/01/14 03:15:24;;;;;;;4.80;3.20;;;;;;;1.78;82.89;98458.16;104755;1275;75916;-23
2022/01/14 03:17:52;;;;;;;5.40;4.10;;;;;;;1.68;83.05;98441.59;105115;1271;74861;-23
2022/01/14 03:20:48;;;;;;;4.30;2.20;;;;;;;1.54;83.52;98442.15;105086;1274;74114;-23
2022/01/14 03:23:19;;;;;;;4.20;3.00;;;;;;;1.68;83.36;98437.45;105027;1272;162504;-23
2022/01/14 03:25:48;;;;;;;5.30;2.80;;;;;;;1.88;82.32;98436.20;105051;1274;62051;-23
2022/01/14 03:28:21;;;;;;;4.70;3.40;;;;;;;1.73;82.85;98429.52;105185;1272;74449;-23
2022/01/14 03:30:52;;;;;;;3.40;2.40;;;;;;;1.62;83.07;98432.86;104829;1274;76292;-23
2022/01/14 03:33:20;;;;;;;6.00;3.50;;;;;;;1.54;83.46;98413.05;104823;1274;74301;-23
2022/01/14 03:35:49;;;;;;;4.60;3.40;;;;;;;1.77;82.61;98423.45;104780;1271;61938;-24
2022/01/14 03:38:17;;;;;;;3.40;2.20;;;;;;;1.72;82.68;98414.50;104921;1271;61188;-23
2022/01/14 03:40:46;;;;;;;3.60;2.70;;;;;;;1.59;83.13;98400.13;105084;1272;75596;-23
2022/01/14 03:43:14;;;;;;;4.80;2.90;;;;;;;1.47;83.92;98410.05;104753;1271;75938;-23
2022/01/14 03:45:42;;;;;;;3.80;2.50;;;;;;;1.67;83.48;98412.71;104860;1271;74218;-23
2022/01/14 03:48:11;;;;;;;4.10;2.70;;;;;;;1.84;82.32;98398.09;105126;1272;61992;-24
2022/01/14 03:50:39;;;;;;;4.80;3.30;;;;;;;1.69;82.74;98407.11;104859;1271;61147;-24
2022/01/14 03:53:07;;;;;;;4.90;3.10;;;;;;;1.53;83.49;98407.64;104829;1272;75671;-23
2022/01/14 03:55:41;;;;;;;3.50;2.60;;;;;;;1.60;83.39;98416.14;105018;1272;76105;-23
2022/01/14 03:58:29;;;;;;;6.70;4.50;;;;;;;1.92;82.24;98422.29;104890;1272;73515;-23
2022/01/14 04:00:57;;;;;;;4.40;3.20;;;;;;;1.73;82.69;98416.31;105123;1274;61038;-23
2022/01/14 04:03:26;;;;;;;6.40;2.80;;;;;;;1.59;83.39;98402.87;105102;1271;61034;-23
2022/01/14 04:05:54;;;;;;;4.60;2.90;;;;;;;1.45;84.18;98375.91;105120;1271;75583;-23
2022/01/14 04:08:23;;;;;;;3.50;2.60;;;;;;;1.63;83.41;98392.70;105123;1273;76164;-25
2022/01/14 04:10:53;;;;;;;7.20;3.80;;;;;;;1.91;82.35;98377.13;104907;1271;74437;-23
2022/01/14 04:13:34;;;;;;;3.30;2.60;;;;;;;1.65;83.24;98368.67;104757;1274;61246;-23
2022/01/14 04:16:02;;;;;;;8.40;3.40;;;;;;;1.59;83.69;98376.02;105036;1274;61270;-24
2022/01/14 04:18:32;;;;;;;5.00;3.00;;;;;;;1.74;83.13;98360.50;104826;1271;76779;-23
2022/01/14 04:21:00;;;;;;;3.00;2.20;;;;;;;1.99;82.05;98362.87;104845;1271;76525;-24
2022/01/14 04:23:29;;;;;;;5.80;3.50;;;;;;;1.84;82.42;98360.27;105113;1271;74654;-24
2022/01/14 04:25:58;;;;;;;3.20;2.90;;;;;;;1.65;83.23;98350.67;105159;1271;61066;-24
2022/01/14 04:28:29;;;;;;;5.30;3.70;;;;;;;1.69;83.34;98342.61;105102;1271;62028;-23
2022/01/14 04:30:58;;;;;;;5.20;3.80;;;;;;;1.91;82.37;98327.85;105094;1271;75572;-23
2022/01/14 04:33:29;;;;;;;7.20;3.50;;;;;;;1.88;82.21;98320.48;105131;1274;74674;-23
2022/01/14 04:36:01;;;;;;;6.00;3.60;;;;;;;1.65;83.32;98309.79;105064;1271;74774;-23
2022/01/14 04:38:30;;;;;;;4.40;3.20;;;;;;;1.61;83.61;98305.27;105112;1272;61668;-23
2022/01/14 04:40:58;;;;;;;5.90;3.70;;;;;;;1.83;82.69;98319.89;104946;1272;61104;-23
2022/01/14 04:43:28;;;;;;;5.90;2.90;;;;;;;1.88;82.31;98326.48;104794;1271;75636;-23
2022/01/14 04:48:09;;;;;;;5.20;3.70;;;;;;;1.62;83.50;98296.27;101673;1309;600283;-22
2022/01/14 04:50:38;;;;;;;7.10;4.20;;;;;;;1.75;83.13;98322.79;104231;1287;61070;-24
2022/01/14 04:53:09;;;;;;;5.10;3.00;;;;;;;1.84;82.46;98314.86;104405;1284;61037;-23
2022/01/14 04:55:38;;;;;;;5.00;3.10;;;;;;;1.78;82.46;98302.73;103960;1284;71328;-23
2022/01/14 04:58:06;;;;;;;5.40;3.60;;;;;;;1.60;83.50;98296.38;104409;1284;75929;-23
2022/01/14 05:00:37;;;;;;;5.50;3.70;;;;;;;1.58;83.68;98311.23;104145;1284;215083;-23
2022/01/14 05:03:06;;;;;;;5.80;3.10;;;;;;;1.80;82.68;98313.39;104266;1284;62189;-22
2022/01/14 05:05:38;;;;;;;7.40;4.90;;;;;;;1.63;83.39;98317.93;104592;1281;61175;-23
2022/01/14 05:08:10;;;;;;;4.40;3.00;;;;;;;1.51;83.99;98319.65;104540;1281;72518;-22
2022/01/14 05:13:26;;;;;;;8.30;4.40;;;;;;;1.79;82.66;98308.02;104602;1279;73043;-23
2022/01/14 05:15:55;;;;;;;5.50;3.30;;;;;;;1.81;82.75;98311.83;104516;1281;61130;-23
2022/01/14 05:18:25;;;;;;;7.30;4.20;;;;;;;1.67;83.15;98301.16;104820;1271;61006;-24
2022/01/14 05:20:53;;;;;;;5.10;3.30;;;;;;;1.55;83.63;98324.59;104743;1271;74687;-24
2022/01/14 05:23:24;;;;;;;9.40;5.30;;;;;;;1.69;83.17;98291.09;104914;1274;75122;-23
2022/01/14 05:25:52;;;;;;;3.90;2.50;;;;;;;1.84;82.55;98319.83;105160;1271;73569;-22
2022/01/14 05:28:21;;;;;;;4.10;2.90;;;;;;;1.70;82.79;98319.63;105159;1271;61130;-23
2022/01/14 05:30:49;;;;;;;5.80;3.60;;;;;;;1.50;83.69;98310.97;105113;1271;61729;-22
2022/01/14 05:33:18;;;;;;;3.50;2.40;;;;;;;1.69;83.40;98309.39;105123;1271;73772;-22
2022/01/14 05:35:46;;;;;;;5.00;3.00;;;;;;;1.95;81.90;98318.36;105167;1271;74949;-22
2022/01/14 05:38:14;;;;;;;5.00;3.20;;;;;;;1.78;82.57;98309.44;105117;1271;73366;-22
2022/01/14 05:40:42;;;;;;;5.80;3.50;;;;;;;1.60;83.44;98293.68;105109;1271;61054;-23
2022/01/14 05:43:11;;;;;;;7.70;4.90;;;;;;;1.51;83.87;98270.05;105126;1271;61150;-23
2022/01/14 05:45:40;;;;;;;6.70;4.10;;;;;;;1.74;83.28;98287.73;105102;1271;73218;-23
2022/01/14 05:48:08;;;;;;;6.60;4.60;;;;;;;1.79;82.57;98275.64;105089;1271;75218;-23
2022/01/14 05:50:36;;;;;;;4.30;2.90;;;;;;;1.54;83.95;98307.01;105040;1271;73320;-22
2022/01/14 05:53:06;;;;;;;6.20;4.40;;;;;;;1.59;83.60;98304.30;105127;1271;61908;-23
2022/01/14 05:55:35;;;;;;;5.70;4.40;;;;;;;1.65;83.53;98293.20;105123;1271;62200;-23
2022/01/14 05:58:03;;;;;;;7.70;4.70;;;;;;;1.68;83.39;98271.70;105165;1271;74661;-22
2022/01/14 06:00:31;;;;;;;10.40;5.40;;;;;;;1.58;83.99;98261.41;105062;1274;76099;-22
2022/01/14 06:03:00;;;;;;;7.30;4.20;;;;;;;1.32;84.97;98280.68;105150;1271;74522;-21
2022/01/14 06:05:33;;;;;;;5.40;3.80;;;;;;;1.60;84.29;98275.50;105135;1271;61529;-22
2022/01/14 06:08:02;;;;;;;7.70;3.80;;;;;;;1.79;83.24;98276.00;104924;1271;61181;-22
2022/01/14 06:10:30;;;;;;;6.80;4.50;;;;;;;1.64;83.59;98280.62;105078;1272;73811;-21
2022/01/14 06:12:59;;;;;;;5.10;3.00;;;;;;;1.45;84.47;98256.02;105021;1271;75776;-21
2022/01/14 06:15:27;;;;;;;5.20;3.90;;;;;;;1.40;84.71;98281.75;105082;1272;74453;-21
2022/01/14 06:17:56;;;;;;;6.70;4.20;;;;;;;1.69;83.85;98282.38;105077;1271;62151;-22
2022/01/14 06:20:24;;;;;;;5.40;3.70;;;;;;;1.63;83.94;98287.02;105037;1271;61756;-22
2022/01/14 06:22:53;;;;;;;6.80;4.00;;;;;;;1.50;84.56;98283.59;104758;1274;73839;-22
2022/01/14 06:25:21;;;;;;;6.20;4.00;;;;;;;1.29;85.41;98277.58;105148;1271;75707;-24
2022/01/14 06:27:50;;;;;;;5.20;3.20;;;;;;;1.49;85.14;98270.66;105132;1271;73426;-22
2022/01/14 06:30:21;;;;;;;7.10;3.60;;;;;;;1.57;84.47;98283.23;105114;1271;61841;-23
2022/01/14 06:32:53;;;;;;;6.40;3.70;;;;;;;1.37;85.48;98273.92;105145;1271;60984;-24
2022/01/14 06:35:21;;;;;;;8.90;6.00;;;;;;;1.22;86.06;98254.70;105068;1271;74117;-22
2022/01/14 06:37:50;;;;;;;8.00;6.00;;;;;;;1.40;85.96;98268.25;105055;1274;75042;-22
2022/01/14 06:40:18;;;;;;;6.90;3.50;;;;;;;1.38;85.77;98247.31;105022;1271;72519;-21
2022/01/14 06:42:50;;;;;;;6.90;4.50;;;;;;;1.34;85.92;98260.36;105121;1271;61101;-21
2022/01/14 06:45:19;;;;;;;5.90;4.10;;;;;;;1.15;86.75;98241.23;104819;1274;61379;-21
2022/01/14 06:47:47;;;;;;;8.00;5.10;;;;;;;1.46;86.00;98220.17;105119;1271;73705;-21
2022/01/14 06:50:16;;;;;;;7.80;4.30;;;;;;;1.51;85.93;98228.31;104996;1274;75236;-21
2022/01/14 06:52:44;;;;;;;7.80;4.90;;;;;;;1.42;86.39;98236.32;105129;1274;74113;-21
2022/01/14 06:55:13;;;;;;;5.20;3.70;;;;;;;1.30;86.97;98235.47;105145;1274;61051;-21
2022/01/14 06:57:42;;;;;;;6.10;4.10;;;;;;;1.42;86.80;98226.75;105201;1274;61635;-21
2022/01/14 07:00:12;;;;;;;5.90;4.60;;;;;;;1.70;85.49;98228.45;105134;1274;74488;-22
2022/01/14 07:02:41;;;;;;;6.90;5.10;;;;;;;1.52;86.09;98203.08;105108;1274;75967;-21
2022/01/14 07:05:10;;;;;;;7.20;4.40;;;;;;;1.42;86.71;98207.45;105197;1271;74285;-23
2022/01/14 07:07:38;;;;;;;5.70;3.80;;;;;;;1.46;86.86;98194.52;104918;1274;61118;-22
2022/01/14 07:10:25;;;;;;;5.50;3.60;;;;;;;1.70;85.27;98183.92;105062;1272;61154;-20
2022/01/14 07:12:54;;;;;;;6.40;4.30;;;;;;;1.62;85.61;98160.23;104931;1274;74744;-21
2022/01/14 07:15:23;;;;;;;6.30;3.50;;;;;;;1.41;86.40;98174.98;105115;1274;75815;-21
2022/01/14 07:17:52;;;;;;;5.20;3.30;;;;;;;1.36;86.91;98170.68;105053;1274;76189;-21
2022/01/14 07:20:20;;;;;;;3.80;2.90;;;;;;;1.74;85.46;98181.46;105053;1271;61113;-21
2022/01/14 07:22:48;;;;;;;4.60;2.90;;;;;;;1.78;84.68;98161.04;104880;1274;61948;-22
2022/01/14 07:25:19;;;;;;;6.20;4.10;;;;;;;1.58;85.64;98173.15;105120;1274;73657;-21
2022/01/14 07:27:47;;;;;;;4.40;3.60;;;;;;;1.37;86.46;98151.76;104976;1274;75966;-21
2022/01/14 07:30:16;;;;;;;6.10;3.30;;;;;;;1.53;86.04;98148.67;105157;1274;74701;-21
2022/01/14 07:32:44;;;;;;;5.20;3.60;;;;;;;1.65;85.48;98132.67;105149;1271;61099;-21
2022/01/14 07:35:13;;;;;;;6.90;4.30;;;;;;;1.61;85.74;98167.00;105128;1271;61031;-21
2022/01/14 07:37:41;;;;;;;8.50;4.10;;;;;;;1.51;85.94;98150.14;105133;1271;74744;-22
2022/01/14 07:40:10;;;;;;;6.00;4.10;;;;;;;1.43;86.37;98139.16;105072;1274;76179;-21
2022/01/14 07:42:38;;;;;;;7.10;4.80;;;;;;;1.64;85.86;98144.94;105081;1274;72192;-19
2022/01/14 07:45:07;;;;;;;7.60;3.60;;;;;;;1.56;86.12;98139.91;105191;1271;60983;-21
2022/01/14 07:47:36;;;;;;;6.70;4.50;;;;;;;1.46;86.43;98151.27;105089;1274;61067;-23
2022/01/14 07:50:05;;;;;;;6.60;4.40;;;;;;;1.47;86.36;98138.40;104804;1274;74734;-23
2022/01/14 07:52:33;;;;;;;6.90;4.30;;;;;;;1.70;85.69;98144.21;104651;1273;77037;-22
2022/01/14 07:55:01;;;;;;;9.00;5.80;;;;;;;1.58;85.81;98133.65;104906;1274;74431;-23
2022/01/14 07:57:30;;;;;;;7.10;5.00;;;;;;;1.51;86.46;98134.21;104981;1274;61035;-22
2022/01/14 07:59:59;;;;;;;7.20;4.30;;;;;;;1.54;86.48;98129.59;105173;1274;61064;-22
2022/01/14 08:02:27;;;;;;;4.90;2.90;;;;;;;1.80;85.36;98121.20;104947;1274;74812;-22
2022/01/14 08:07:46;;;;;;;8.00;3.90;;;;;;;1.46;86.29;98100.64;104579;1277;74325;-21
2022/01/14 08:10:15;;;;;;;7.50;4.90;;;;;;;1.44;86.82;98069.59;104520;1277;61663;-21
2022/01/14 08:12:43;;;;;;;5.80;4.40;;;;;;;1.62;85.96;98089.92;104795;1278;61331;-21
2022/01/14 08:15:12;;;;;;;9.00;4.70;;;;;;;1.71;85.46;98071.28;104647;1277;73710;-20
2022/01/14 08:17:40;;;;;;;5.60;3.90;;;;;;;1.53;86.22;98059.32;104793;1277;74916;-20
2022/01/14 08:20:09;;;;;;;8.20;5.10;;;;;;;1.43;86.55;98027.28;104796;1278;74608;-20
2022/01/14 08:22:38;;;;;;;7.10;4.90;;;;;;;1.68;85.69;98030.75;104687;1277;61189;-20
2022/01/14 08:25:09;;;;;;;7.90;5.20;;;;;;;1.71;85.38;98025.77;104784;1277;61272;-20
2022/01/14 08:27:37;;;;;;;9.40;5.80;;;;;;;1.47;86.36;98011.61;104792;1277;73931;-20
2022/01/14 08:30:07;;;;;;;9.40;4.90;;;;;;;1.50;86.60;98018.27;104824;1278;76312;-20
2022/01/14 08:32:35;;;;;;;6.40;4.40;;;;;;;1.77;85.79;97988.23;104672;1277;74415;-20
2022/01/14 08:35:04;;;;;;;6.10;4.70;;;;;;;1.78;85.56;97995.40;104730;1277;61216;-20
2022/01/14 08:37:33;;;;;;;6.60;4.30;;;;;;;1.60;86.28;97998.20;104648;1276;61045;-20
2022/01/14 08:40:06;;;;;;;7.50;4.70;;;;;;;1.65;86.26;97982.98;104832;1278;73760;-20
2022/01/14 08:42:35;;;;;;;4.90;3.20;;;;;;;1.88;85.34;97982.45;104576;1277;76064;-20
2022/01/14 08:45:04;;;;;;;5.60;3.80;;;;;;;1.76;85.33;97981.24;104611;1275;74376;-20
2022/01/14 08:47:32;;;;;;;5.10;3.40;;;;;;;1.54;86.72;97954.58;104839;1271;61069;-20
2022/01/14 08:50:02;;;;;;;7.00;4.00;;;;;;;1.58;86.74;97969.43;105132;1271;61003;-20
2022/01/14 08:52:31;;;;;;;4.30;2.90;;;;;;;1.80;85.90;97967.33;105101;1271;73372;-20
2022/01/14 08:54:59;;;;;;;8.60;5.00;;;;;;;1.79;85.78;97958.86;104995;1271;75955;-21
2022/01/14 08:57:27;;;;;;;5.40;3.30;;;;;;;1.53;86.64;97946.06;105073;1271;74371;-20
2022/01/14 08:59:56;;;;;;;6.50;3.70;;;;;;;1.60;86.83;97934.17;105173;1271;61956;-20
2022/01/14 09:02:24;;;;;;;5.50;3.40;;;;;;;1.71;87.52;97956.43;105020;1271;61692;-19
2022/01/14 09:04:52;;;;;;;7.10;4.00;;;;;;;1.69;87.92;97957.48;104890;1271;75597;-21
2022/01/14 09:07:21;;;;;;;5.70;3.90;;;;;;;1.53;88.33;97947.12;104896;1271;75381;-19
2022/01/14 09:09:49;;;;;;;6.00;3.70;;;;;;;1.49;88.33;97936.05;104830;1271;74447;-19
2022/01/14 09:12:32;;;;;;;5.40;3.70;;;;;;;1.69;87.81;97919.42;104911;1271;61167;-20
2022/01/14 09:15:01;;;;;;;5.50;4.30;;;;;;;1.62;88.14;97919.70;104839;1271;61185;-19
2022/01/14 09:17:30;;;;;;;5.90;3.50;;;;;;;1.46;89.04;97916.41;105016;1271;75725;-19
2022/01/14 09:20:02;;;;;;;4.40;3.10;;;;;;;1.66;88.91;97899.25;105038;1272;76307;-19
2022/01/14 09:22:34;;;;;;;3.40;1.60;;;;;;;1.93;88.38;97882.18;105087;1271;72935;-19
2022/01/14 09:26:44;;;;;;;3.40;1.60;;;;;;;-128.00;-1.00;-1.00;55097;1271;156683339;-19
2022/01/14 09:34:10;;;;;;;3.40;1.60;;;;;;;-73.23;94.09;63772.29;14624;1271;422162149;-20
2022/01/14 09:36:39;;;;;;;1.70;0.80;;;;;;;-132.09;19.20;22445.03;102685;1271;1002501;-19
2022/01/14 09:39:08;;;;;;;2.00;1.20;;;;;;;-128.00;-1.00;-1.00;102534;1274;1002862;-20
2022/01/14 09:48:27;;;;;;;2.00;1.20;;;;;;;-128.00;-1.00;-1.00;64060;1271;441116953;-20
2022/01/14 09:56:06;;;;;;;2.00;1.20;;;;;;;-128.00;-1.00;-1.00;2;448660060;448660060;-20
2022/01/14 10:05:56;;;;;;;2.00;1.20;;;;;;;-128.00;-1.00;-1.00;2;579214140;579214140;-20
2022/01/14 10:16:05;;;;;;;2.00;1.20;;;;;;;-128.00;-1.00;-1.00;2;597214275;597214275;-20
2022/01/14 10:18:56;;;;;;;2.00;1.20;;;;;;;-128.00;-1.00;-1.00;2;166417578;166417578;-20
2022/01/14 10:21:32;;;;;;;0.30;0.30;;;;;;;-128.00;-1.00;-1.00;9604;1271;122902674;-20
2022/01/14 10:24:00;;;;;;;0.30;0.30;;;;;;;-128.00;-1.00;-1.00;92638;1272;6705963;-19
2022/01/14 10:26:59;;;;;;;0.30;0.30;;;;;;;-128.00;-1.00;-1.00;73094;1271;11867126;-18
2022/01/14 10:29:38;;;;;;;0.30;0.30;;;;;;;-128.00;-1.00;-1.00;37870;1271;64387283;-18
2022/01/14 10:40:18;;;;;;;0.30;0.30;;;;;;;-138.23;49.50;56114.07;5145;1274;576221834;-19
2022/01/14 10:50:27;;;;;;;0.30;0.30;;;;;;;-128.00;-1.00;-1.00;2;597224332;597224332;-18
2022/01/14 11:00:38;;;;;;;0.30;0.30;;;;;;;-128.00;-1.00;-1.00;2;597221068;597221068;-19
2022/01/14 11:08:13;;;;;;;0.30;0.30;;;;;;;-128.00;-1.00;-1.00;2;444162185;444162185;-19
2022/01/14 11:14:55;;;;;;;0.30;0.30;;;;;;;-128.00;-1.00;-1.00;2;390150565;390150565;-19
2022/01/14 11:24:46;;;;;;;0.30;0.30;;;;;;;-128.00;-1.00;-1.00;2;579213447;579213447;-19
2022/01/14 11:34:54;;;;;;;0.30;0.30;;;;;;;-128.00;-1.00;-1.00;2;597222844;597222844;-20
2022/01/14 11:45:06;;;;;;;0.30;0.30;;;;;;;-128.00;-1.00;-1.00;2;597218223;597218223;-19
2022/01/14 11:52:42;;;;;;;0.30;0.30;;;;;;;-128.00;-1.00;-1.00;2;444168220;444168220;-19
2022/01/14 11:59:23;;;;;;;0.30;0.30;;;;;;;-128.00;-1.00;-1.00;2;390144759;390144759;-19
2022/01/14 12:09:13;;;;;;;0.30;0.30;;;;;;;-128.00;-1.00;-1.00;2;579217883;579217883;-19
2022/01/14 12:19:23;;;;;;;0.30;0.30;;;;;;;-128.00;-1.00;-1.00;2;597226383;597226383;-20
2022/01/14 12:29:34;;;;;;;0.30;0.30;;;;;;;-128.00;-1.00;-1.00;2;597224253;597224253;-20
2022/01/14 12:37:10;;;;;;;0.30;0.30;;;;;;;-128.00;-1.00;-1.00;2;444172040;444172040;-20
2022/01/14 12:55:39;;;;;;;0.30;0.30;;;;;;;-128.00;-1.00;-1.00;2;583714716;583714716;-20
2022/01/14 13:05:47;;;;;;;0.30;0.30;;;;;;;-128.00;-1.00;-1.00;2;597221921;597221921;-19
2022/01/14 13:16:04;;;;;;;0.30;0.30;;;;;;;-128.00;-1.00;-1.00;2;597222203;597222203;-20
2022/01/14 13:23:39;;;;;;;0.30;0.30;;;;;;;-128.00;-1.00;-1.00;2;444166674;444166674;-19
